Terminal Aerodrome Forecast
Issued by NWS

Home | Current Version | Previous Version | Text Only | Print | Product List | Glossary On
Versions: 1 2 3 4 5 6 7 8 9 10 11 12 13 14 15 16 17
000
FTUS46 KMTR 251700
TAFSTS
TAF
KSTS 251720Z 2518/2618 VRB03KT P6SM OVC010
     FM251900 17006KT P6SM BKN015
     FM252100 18010KT P6SM SKC
     FM260300 16005KT P6SM FEW015
     FM260500 15005KT P6SM OVC008
     FM260900 00000KT P6SM OVC007=

USA.gov is the U.S. government's official web portal to all federal, state and local government web resources and services.